Time;durP1;ratioP1;P1;durP2;ratioP2;P2;SDS_P1;SDS_P2;PMS_P1;PMS_P2;Temp;Humidity;BMP_temperature;BMP_pressure;BME280_temperature;BME280_humidity;BME280_pressure;Samples;Min_cycle;Max_cycle;Signal;HPM_P1;HPM_P2
2022/12/09 00:00:49;;;;;;;;;;;;;;;4.72;85.98;98598.94;5004698;28;19964;-76
2022/12/09 00:03:14;;;;;;;;;;;;;;;4.79;86.70;98595.44;5003833;28;19933;-77
2022/12/09 00:05:40;;;;;;;;;;;;;;;4.61;88.50;98582.09;5005412;28;19917;-76
2022/12/09 00:08:05;;;;;;;;;;;;;;;4.37;90.79;98572.22;5005268;28;19929;-77
2022/12/09 00:10:30;;;;;;;;;;;;;;;4.34;89.07;98567.19;5004824;28;19927;-76
2022/12/09 00:12:55;;;;;;;;;;;;;;;4.40;88.53;98565.41;5003909;28;19921;-77
2022/12/09 00:15:21;;;;;;;;;;;;;;;4.32;88.17;98568.91;5004311;28;19925;-77
2022/12/09 00:17:46;;;;;;;;;;;;;;;4.39;87.79;98568.78;5004161;28;19928;-77
2022/12/09 00:20:11;;;;;;;;;;;;;;;4.28;89.03;98557.06;5004727;28;20076;-76
2022/12/09 00:22:36;;;;;;;;;;;;;;;4.36;87.08;98568.00;5004616;28;19964;-76
2022/12/09 00:25:02;;;;;;;;;;;;;;;4.14;88.04;98565.75;5002912;28;20372;-76
2022/12/09 00:27:27;;;;;;;;;;;;;;;4.49;85.30;98583.97;5004720;28;20518;-76
2022/12/09 00:29:52;;;;;;;;;;;;;;;4.36;85.97;98580.75;5003925;28;19956;-76
2022/12/09 00:32:17;;;;;;;;;;;;;;;4.51;85.65;98590.72;5004988;28;19926;-76
2022/12/09 00:34:43;;;;;;;;;;;;;;;4.54;86.26;98580.50;5003905;28;20060;-76
2022/12/09 00:37:08;;;;;;;;;;;;;;;4.62;86.62;98582.94;5004603;28;19957;-76
2022/12/09 00:39:33;;;;;;;;;;;;;;;4.54;87.91;98570.28;5004627;28;19913;-77
2022/12/09 00:41:58;;;;;;;;;;;;;;;4.54;88.34;98569.47;5004141;28;19956;-75
2022/12/09 00:44:23;;;;;;;;;;;;;;;4.54;88.87;98565.19;5004228;28;19925;-76
2022/12/09 00:46:49;;;;;;;;;;;;;;;4.55;89.11;98564.31;5004802;28;20011;-75
2022/12/09 00:49:14;;;;;;;;;;;;;;;4.06;91.87;98547.19;5002975;28;19935;-76
2022/12/09 00:51:39;;;;;;;;;;;;;;;4.49;87.83;98566.94;5004163;28;19921;-76
2022/12/09 00:54:04;;;;;;;;;;;;;;;4.46;88.93;98561.91;5004141;28;20020;-77
2022/12/09 00:56:30;;;;;;;;;;;;;;;4.71;87.38;98569.19;5002876;28;19963;-76
2022/12/09 00:58:56;;;;;;;;;;;;;;;4.89;88.32;98568.91;5003309;28;19917;-75
2022/12/09 01:01:21;;;;;;;;;;;;;;;4.85;90.14;98559.59;5002683;28;20005;-76
2022/12/09 01:03:46;;;;;;;;;;;;;;;4.78;91.66;98547.81;5003698;28;19917;-76
2022/12/09 01:06:22;;;;;;;;;;;;;;;4.78;92.65;98532.53;5002883;28;19914;-76
2022/12/09 01:08:47;;;;;;;;;;;;;;;4.32;96.47;98507.72;5004526;28;19921;-75
2022/12/09 01:11:18;;;;;;;;;;;;;;;4.14;95.62;98513.94;5002436;28;19973;-76
2022/12/09 01:13:44;;;;;;;;;;;;;;;3.85;93.79;98507.50;5002578;28;19925;-77
2022/12/09 01:16:28;;;;;;;;;;;;;;;4.12;90.93;98531.78;5003919;28;19920;-76
2022/12/09 01:18:54;;;;;;;;;;;;;;;3.42;93.85;98522.47;5003928;28;19928;-76
2022/12/09 01:21:19;;;;;;;;;;;;;;;3.68;87.76;98545.94;5002543;28;19917;-76
2022/12/09 01:23:45;;;;;;;;;;;;;;;3.65;85.49;98560.38;5002179;28;19924;-76
2022/12/09 01:26:10;;;;;;;;;;;;;;;3.57;85.79;98578.31;5003786;28;19940;-76
2022/12/09 01:28:36;;;;;;;;;;;;;;;4.05;80.04;98609.19;4985482;28;20008;-77
2022/12/09 01:31:08;;;;;;;;;;;;;;;4.27;81.09;98622.50;5002386;28;19922;-77
2022/12/09 01:33:33;;;;;;;;;;;;;;;4.50;83.10;98616.25;5002777;28;19914;-77
2022/12/09 01:35:59;;;;;;;;;;;;;;;4.47;85.39;98609.50;5003974;28;19925;-77
2022/12/09 01:38:24;;;;;;;;;;;;;;;4.42;87.89;98595.94;5004411;28;19965;-77
2022/12/09 01:40:49;;;;;;;;;;;;;;;4.56;89.04;98581.31;5003900;28;19922;-77
2022/12/09 01:43:16;;;;;;;;;;;;;;;4.27;91.84;98566.44;5003466;28;19934;-76
2022/12/09 01:45:42;;;;;;;;;;;;;;;4.11;91.71;98545.41;5002466;28;19921;-76
2022/12/09 01:48:12;;;;;;;;;;;;;;;4.14;91.35;98544.50;5003074;28;19917;-77
2022/12/09 01:50:38;;;;;;;;;;;;;;;4.21;90.26;98561.41;5002635;28;20156;-77
2022/12/09 01:53:04;;;;;;;;;;;;;;;4.36;90.71;98552.72;5003326;28;19921;-77
2022/12/09 01:55:31;;;;;;;;;;;;;;;4.32;92.84;98538.31;5005510;28;21294;-76
2022/12/09 01:57:56;;;;;;;;;;;;;;;4.02;95.88;98514.94;5007441;28;19917;-77
2022/12/09 02:00:22;;;;;;;;;;;;;;;4.06;93.25;98521.69;5005780;28;19917;-77
2022/12/09 02:02:47;;;;;;;;;;;;;;;3.87;94.78;98510.06;5005955;28;19935;-77
2022/12/09 02:05:12;;;;;;;;;;;;;;;4.06;94.44;98516.59;5005226;28;19931;-76
2022/12/09 02:07:37;;;;;;;;;;;;;;;4.34;93.86;98514.50;5005916;28;20016;-77
2022/12/09 02:10:04;;;;;;;;;;;;;;;4.48;94.95;98513.44;5006870;28;21548;-77
2022/12/09 02:12:55;;;;;;;;;;;;;;;4.27;97.69;98494.22;5005756;28;19922;-77
2022/12/09 02:15:23;;;;;;;;;;;;;;;4.29;97.25;98482.28;5004916;28;19926;-77
2022/12/09 02:17:53;;;;;;;;;;;;;;;4.10;97.80;98482.53;5005489;28;19933;-76
2022/12/09 02:20:28;;;;;;;;;;;;;;;4.38;96.62;98482.16;5005968;28;19929;-77
2022/12/09 02:23:12;;;;;;;;;;;;;;;4.65;97.03;98485.13;5005105;28;19921;-77
2022/12/09 02:25:47;;;;;;;;;;;;;;;4.67;100.00;98468.09;5006940;28;20534;-78
2022/12/09 02:28:12;;;;;;;;;;;;;;;4.97;100.00;98446.28;5005049;28;20450;-77
2022/12/09 02:30:46;;;;;;;;;;;;;;;4.39;100.00;98422.66;5004913;28;19925;-77
2022/12/09 02:33:30;;;;;;;;;;;;;;;4.34;100.00;98434.63;5004982;28;19941;-77
2022/12/09 02:35:57;;;;;;;;;;;;;;;4.61;100.00;98439.28;5006230;28;20388;-77
2022/12/09 02:38:24;;;;;;;;;;;;;;;4.95;100.00;98422.50;5005135;28;19918;-77
2022/12/09 02:40:51;;;;;;;;;;;;;;;4.90;100.00;98420.03;5005490;28;19932;-76
2022/12/09 02:43:17;;;;;;;;;;;;;;;4.36;100.00;98402.31;5004431;28;19918;-76
2022/12/09 02:45:42;;;;;;;;;;;;;;;4.39;100.00;98407.34;5005441;28;19924;-77
2022/12/09 02:48:08;;;;;;;;;;;;;;;3.44;100.00;98383.28;5005129;28;19929;-77
2022/12/09 02:50:34;;;;;;;;;;;;;;;3.95;100.00;98411.44;5005549;28;20048;-77
2022/12/09 02:53:00;;;;;;;;;;;;;;;4.07;100.00;98431.63;5004960;28;19960;-77
2022/12/09 02:55:25;;;;;;;;;;;;;;;3.61;100.00;98428.91;5004728;28;19922;-76
2022/12/09 02:57:51;;;;;;;;;;;;;;;4.04;98.40;98462.28;5004898;28;20378;-76
2022/12/09 03:00:17;;;;;;;;;;;;;;;4.21;99.19;98468.81;5005724;28;19917;-76
2022/12/09 03:02:43;;;;;;;;;;;;;;;4.30;100.00;98464.41;5006843;28;19921;-77
2022/12/09 03:05:11;;;;;;;;;;;;;;;4.78;100.00;98467.03;5004882;28;20380;-78
2022/12/09 03:07:41;;;;;;;;;;;;;;;4.80;100.00;98450.00;5005944;28;19918;-78
2022/12/09 03:10:08;;;;;;;;;;;;;;;4.97;100.00;98439.50;5006101;28;19921;-77
2022/12/09 03:12:33;;;;;;;;;;;;;;;5.10;100.00;98435.00;5005277;28;19925;-76
2022/12/09 03:14:59;;;;;;;;;;;;;;;4.14;100.00;98397.53;5004607;28;19922;-77
2022/12/09 03:17:32;;;;;;;;;;;;;;;4.65;100.00;98398.41;4988194;28;19917;-77
2022/12/09 03:20:08;;;;;;;;;;;;;;;4.58;100.00;98395.13;5004090;28;19922;-77
2022/12/09 03:22:33;;;;;;;;;;;;;;;4.76;100.00;98396.50;5004319;28;19979;-77
2022/12/09 03:25:02;;;;;;;;;;;;;;;4.88;100.00;98385.22;5004305;28;19921;-76
2022/12/09 03:27:27;;;;;;;;;;;;;;;4.79;100.00;98376.91;5004174;28;19967;-77
2022/12/09 03:29:53;;;;;;;;;;;;;;;4.71;100.00;98363.44;5003417;28;19917;-77
2022/12/09 03:32:18;;;;;;;;;;;;;;;4.75;100.00;98354.03;5004757;28;19950;-76
2022/12/09 03:34:44;;;;;;;;;;;;;;;4.58;100.00;98354.31;5004236;28;20489;-78
2022/12/09 03:37:09;;;;;;;;;;;;;;;4.63;100.00;98344.91;5004199;28;19944;-77
2022/12/09 03:39:34;;;;;;;;;;;;;;;4.12;100.00;98333.03;5004044;28;20291;-77
2022/12/09 03:42:01;;;;;;;;;;;;;;;4.30;100.00;98346.34;5003777;28;19921;-77
2022/12/09 03:44:32;;;;;;;;;;;;;;;4.29;100.00;98349.72;5004572;28;19917;-76
2022/12/09 03:46:58;;;;;;;;;;;;;;;4.24;100.00;98347.25;5005603;28;19944;-77
2022/12/09 03:49:23;;;;;;;;;;;;;;;4.67;100.00;98356.69;5004537;28;19948;-77
2022/12/09 03:51:54;;;;;;;;;;;;;;;4.67;100.00;98350.75;5005352;28;20012;-77
2022/12/09 03:54:31;;;;;;;;;;;;;;;4.54;100.00;98333.16;5003780;28;20458;-76
2022/12/09 03:56:56;;;;;;;;;;;;;;;4.51;100.00;98330.63;5004126;28;19922;-76
2022/12/09 03:59:22;;;;;;;;;;;;;;;4.44;100.00;98328.25;5003729;28;19921;-77
2022/12/09 04:01:48;;;;;;;;;;;;;;;4.50;100.00;98323.88;5004353;28;20007;-75
2022/12/09 04:04:14;;;;;;;;;;;;;;;4.54;100.00;98320.41;5003866;28;20356;-76
2022/12/09 04:06:39;;;;;;;;;;;;;;;4.55;100.00;98308.50;5003358;28;20574;-77
2022/12/09 04:09:04;;;;;;;;;;;;;;;4.60;100.00;98299.88;5004662;28;19921;-77
2022/12/09 04:11:33;;;;;;;;;;;;;;;4.48;100.00;98300.13;5003319;28;19921;-77
2022/12/09 04:13:58;;;;;;;;;;;;;;;4.53;100.00;98297.47;5004159;28;19917;-77
2022/12/09 04:16:23;;;;;;;;;;;;;;;4.30;100.00;98285.16;5003092;28;19917;-77
2022/12/09 04:18:49;;;;;;;;;;;;;;;4.28;100.00;98281.78;5004561;28;19945;-76
2022/12/09 04:21:14;;;;;;;;;;;;;;;4.07;100.00;98288.94;5004645;28;19922;-77
2022/12/09 04:23:40;;;;;;;;;;;;;;;3.58;100.00;98277.03;5003679;28;19921;-76
2022/12/09 04:26:05;;;;;;;;;;;;;;;3.58;100.00;98287.22;5004976;28;19924;-77
2022/12/09 04:28:30;;;;;;;;;;;;;;;3.56;100.00;98302.50;5002622;28;19921;-77
2022/12/09 04:30:56;;;;;;;;;;;;;;;3.46;100.00;98303.50;4986246;28;20502;-77
2022/12/09 04:33:21;;;;;;;;;;;;;;;3.29;100.00;98303.75;4986672;28;19968;-76
2022/12/09 04:35:46;;;;;;;;;;;;;;;3.16;100.00;98312.41;5004993;28;19929;-76
2022/12/09 04:38:11;;;;;;;;;;;;;;;3.00;100.00;98321.09;5003573;28;20383;-76
2022/12/09 04:40:37;;;;;;;;;;;;;;;2.90;100.00;98323.75;5004896;28;19956;-76
2022/12/09 04:43:02;;;;;;;;;;;;;;;2.82;100.00;98338.25;5002315;28;19960;-77
2022/12/09 04:45:27;;;;;;;;;;;;;;;2.81;100.00;98340.84;5003281;28;19925;-77
2022/12/09 04:47:53;;;;;;;;;;;;;;;2.71;100.00;98345.16;5004638;28;19949;-78
2022/12/09 04:50:18;;;;;;;;;;;;;;;2.57;100.00;98362.28;5004667;28;19932;-76
2022/12/09 04:52:43;;;;;;;;;;;;;;;2.14;100.00;98362.66;5003418;28;19925;-77
2022/12/09 04:55:08;;;;;;;;;;;;;;;2.59;100.00;98386.81;5002369;28;19999;-77
2022/12/09 04:57:34;;;;;;;;;;;;;;;2.92;100.00;98405.97;5002967;28;19925;-77
2022/12/09 04:59:59;;;;;;;;;;;;;;;3.26;100.00;98408.13;5002750;28;20694;-77
2022/12/09 05:02:24;;;;;;;;;;;;;;;3.39;100.00;98410.50;5004543;28;19987;-76
2022/12/09 05:04:49;;;;;;;;;;;;;;;2.93;100.00;98379.66;5004816;28;19928;-77
2022/12/09 05:07:15;;;;;;;;;;;;;;;2.97;100.00;98385.56;5004538;28;19965;-77
2022/12/09 05:09:40;;;;;;;;;;;;;;;3.26;100.00;98400.50;5004258;28;19964;-76
2022/12/09 05:12:05;;;;;;;;;;;;;;;3.08;100.00;98383.75;5002998;28;20576;-76
2022/12/09 05:14:31;;;;;;;;;;;;;;;2.78;100.00;98381.53;5001777;28;20024;-76
2022/12/09 05:16:56;;;;;;;;;;;;;;;2.34;100.00;98370.94;5002801;28;19917;-78
2022/12/09 05:19:21;;;;;;;;;;;;;;;2.27;100.00;98382.88;5003534;28;19992;-76
2022/12/09 05:21:46;;;;;;;;;;;;;;;2.16;100.00;98389.72;5003630;28;20315;-76
2022/12/09 05:24:12;;;;;;;;;;;;;;;2.27;100.00;98399.81;5002368;28;19952;-77
2022/12/09 05:26:37;;;;;;;;;;;;;;;2.39;100.00;98414.09;5004026;28;19975;-76
2022/12/09 05:29:02;;;;;;;;;;;;;;;2.65;100.00;98416.44;5004042;28;20483;-76
2022/12/09 05:31:27;;;;;;;;;;;;;;;2.90;100.00;98425.50;5007918;28;19983;-77
2022/12/09 05:33:53;;;;;;;;;;;;;;;2.49;100.00;98408.09;5006700;28;20355;-77
2022/12/09 05:36:19;;;;;;;;;;;;;;;2.61;100.00;98409.69;5007670;28;20460;-77
2022/12/09 05:38:45;;;;;;;;;;;;;;;2.64;100.00;98409.66;5006726;28;20307;-77
2022/12/09 05:41:10;;;;;;;;;;;;;;;2.39;100.00;98392.06;5008050;28;19918;-76
2022/12/09 05:43:35;;;;;;;;;;;;;;;2.41;100.00;98398.00;5007463;28;20426;-76
2022/12/09 05:46:01;;;;;;;;;;;;;;;2.58;100.00;98404.59;5007615;28;20390;-77
2022/12/09 05:48:26;;;;;;;;;;;;;;;2.66;100.00;98408.78;5006385;28;20037;-76
2022/12/09 05:50:55;;;;;;;;;;;;;;;2.97;100.00;98415.25;5006707;28;19917;-77
2022/12/09 05:53:21;;;;;;;;;;;;;;;3.21;100.00;98409.88;5008106;28;19917;-77
2022/12/09 05:55:46;;;;;;;;;;;;;;;2.98;100.00;98381.31;5005898;28;19932;-76
2022/12/09 05:58:11;;;;;;;;;;;;;;;3.07;100.00;98376.13;5003623;28;19929;-77
2022/12/09 06:00:36;;;;;;;;;;;;;;;3.40;100.00;98376.56;5007356;28;19930;-76
2022/12/09 06:03:01;;;;;;;;;;;;;;;3.29;100.00;98352.09;5007109;28;20048;-77
2022/12/09 06:05:27;;;;;;;;;;;;;;;2.67;100.00;98325.75;5007898;28;19982;-76
2022/12/09 06:07:52;;;;;;;;;;;;;;;2.41;100.00;98326.00;5007770;28;19914;-77
2022/12/09 06:10:17;;;;;;;;;;;;;;;2.45;100.00;98328.50;5007431;28;19920;-76
2022/12/09 06:12:42;;;;;;;;;;;;;;;2.60;100.00;98326.63;5007545;28;19918;-77
2022/12/09 06:15:08;;;;;;;;;;;;;;;3.15;100.00;98354.00;5007348;28;20358;-76
2022/12/09 06:17:33;;;;;;;;;;;;;;;3.29;100.00;98348.72;5007793;28;19913;-78
2022/12/09 06:19:58;;;;;;;;;;;;;;;3.22;100.00;98336.94;5009010;28;20261;-76
2022/12/09 06:22:23;;;;;;;;;;;;;;;3.09;100.00;98326.06;5009677;28;19940;-76
2022/12/09 06:24:49;;;;;;;;;;;;;;;2.79;100.00;98322.22;5009248;28;19913;-76
2022/12/09 06:27:14;;;;;;;;;;;;;;;2.66;100.00;98313.88;5010556;28;19917;-76
2022/12/09 06:29:39;;;;;;;;;;;;;;;2.39;100.00;98313.31;5009811;28;20648;-76
2022/12/09 06:32:05;;;;;;;;;;;;;;;2.39;100.00;98322.63;5011390;28;20400;-76
2022/12/09 06:34:30;;;;;;;;;;;;;;;2.52;100.00;98326.72;5010763;28;20383;-76
2022/12/09 06:36:55;;;;;;;;;;;;;;;3.12;100.00;98348.91;5010255;28;20583;-77
2022/12/09 06:39:20;;;;;;;;;;;;;;;2.68;100.00;98322.31;5006059;28;20379;-76
2022/12/09 06:41:46;;;;;;;;;;;;;;;3.02;100.00;98335.47;5008634;28;19913;-76
2022/12/09 06:44:11;;;;;;;;;;;;;;;3.01;100.00;98336.34;5008150;28;19963;-76
2022/12/09 06:46:36;;;;;;;;;;;;;;;2.81;100.00;98316.25;5008138;28;19918;-76
2022/12/09 06:49:01;;;;;;;;;;;;;;;2.41;100.00;98310.75;5008377;28;19913;-76
2022/12/09 06:51:27;;;;;;;;;;;;;;;2.63;100.00;98316.47;4998034;28;19941;-76
2022/12/09 06:53:52;;;;;;;;;;;;;;;2.72;100.00;98322.28;5006705;28;19921;-76
2022/12/09 06:56:17;;;;;;;;;;;;;;;2.75;100.00;98331.56;5008069;28;19921;-76
2022/12/09 06:58:43;;;;;;;;;;;;;;;2.92;100.00;98339.00;5008238;28;19917;-76
2022/12/09 07:01:12;;;;;;;;;;;;;;;2.83;100.00;98339.97;5006763;28;19921;-76
2022/12/09 07:03:37;;;;;;;;;;;;;;;2.81;100.00;98336.59;5008338;28;19913;-76
2022/12/09 07:06:03;;;;;;;;;;;;;;;2.78;100.00;98340.84;5006544;28;19975;-76
2022/12/09 07:08:28;;;;;;;;;;;;;;;2.87;100.00;98341.63;5007560;28;19964;-76
2022/12/09 07:10:54;;;;;;;;;;;;;;;2.89;100.00;98339.03;5008212;28;20003;-76
2022/12/09 07:13:19;;;;;;;;;;;;;;;3.22;100.00;98353.03;5008096;28;19913;-76
2022/12/09 07:15:44;;;;;;;;;;;;;;;3.19;100.00;98342.88;5008251;28;19918;-76
2022/12/09 07:18:09;;;;;;;;;;;;;;;2.98;100.00;98333.84;5007858;28;19921;-77
2022/12/09 07:20:35;;;;;;;;;;;;;;;3.13;100.00;98332.81;5007939;28;19913;-76
2022/12/09 07:23:00;;;;;;;;;;;;;;;2.87;100.00;98326.34;5007123;28;19967;-76
2022/12/09 07:25:25;;;;;;;;;;;;;;;2.87;100.00;98325.50;5007049;28;19967;-76
2022/12/09 07:27:50;;;;;;;;;;;;;;;2.77;100.00;98334.09;5004935;28;19925;-76
2022/12/09 07:30:16;;;;;;;;;;;;;;;3.07;100.00;98343.06;5007609;28;20000;-76
2022/12/09 07:32:41;;;;;;;;;;;;;;;3.12;100.00;98346.38;5006568;28;19949;-76
2022/12/09 07:35:06;;;;;;;;;;;;;;;3.17;100.00;98344.63;5007655;28;20276;-76
2022/12/09 07:37:31;;;;;;;;;;;;;;;2.58;100.00;98326.69;5007440;28;20331;-76
2022/12/09 07:39:57;;;;;;;;;;;;;;;2.59;100.00;98330.88;5007070;28;19952;-76
2022/12/09 07:42:22;;;;;;;;;;;;;;;2.48;100.00;98333.53;5008303;28;19917;-76
2022/12/09 07:44:48;;;;;;;;;;;;;;;2.57;100.00;98347.03;5007575;28;19922;-75
2022/12/09 07:47:13;;;;;;;;;;;;;;;2.54;100.00;98352.16;5007605;28;19917;-76
2022/12/09 07:49:38;;;;;;;;;;;;;;;2.53;100.00;98358.06;5007359;28;19936;-76
2022/12/09 07:52:03;;;;;;;;;;;;;;;2.89;100.00;98360.22;5006434;28;20261;-76
2022/12/09 07:54:29;;;;;;;;;;;;;;;2.96;100.00;98362.69;5005991;28;19922;-77
2022/12/09 07:56:54;;;;;;;;;;;;;;;3.07;100.00;98361.69;5007390;28;20392;-76
2022/12/09 07:59:19;;;;;;;;;;;;;;;3.08;100.00;98347.28;5007449;28;20383;-76
2022/12/09 08:01:44;;;;;;;;;;;;;;;2.78;100.00;98331.53;5008492;28;20830;-76
2022/12/09 08:04:10;;;;;;;;;;;;;;;2.41;100.00;98324.28;5006025;28;19928;-75
2022/12/09 08:06:36;;;;;;;;;;;;;;;2.54;100.00;98331.81;5007510;28;20008;-76
2022/12/09 08:09:02;;;;;;;;;;;;;;;2.51;100.00;98342.84;5007349;28;20060;-76
2022/12/09 08:11:28;;;;;;;;;;;;;;;1.95;100.00;98337.41;5007747;28;19913;-79
2022/12/09 08:13:57;;;;;;;;;;;;;;;2.43;100.00;98360.69;5014454;28;19920;-78
2022/12/09 08:16:22;;;;;;;;;;;;;;;2.50;100.00;98372.50;5013135;28;20536;-78
2022/12/09 08:18:48;;;;;;;;;;;;;;;2.25;100.00;98371.88;5014480;28;19917;-78
2022/12/09 08:21:15;;;;;;;;;;;;;;;2.15;100.00;98377.06;5013459;28;20275;-81
2022/12/09 08:23:40;;;;;;;;;;;;;;;2.36;100.00;98383.66;5014880;28;19960;-80
2022/12/09 08:26:06;;;;;;;;;;;;;;;2.13;100.00;98386.38;5015944;28;19921;-79
2022/12/09 08:28:31;;;;;;;;;;;;;;;2.03;100.00;98381.38;5014118;28;20008;-78
2022/12/09 08:30:56;;;;;;;;;;;;;;;2.27;100.00;98400.66;5014552;28;19913;-79
2022/12/09 08:33:21;;;;;;;;;;;;;;;2.41;100.00;98400.53;5015909;28;19913;-80
2022/12/09 08:35:47;;;;;;;;;;;;;;;2.30;100.00;98395.56;5014016;28;20540;-78
2022/12/09 08:38:12;;;;;;;;;;;;;;;2.45;100.00;98396.28;5014089;28;19963;-81
2022/12/09 08:40:37;;;;;;;;;;;;;;;2.25;100.00;98392.19;5015645;28;19918;-78
2022/12/09 08:43:04;;;;;;;;;;;;;;;2.70;100.00;98399.41;5015091;28;19917;-82
2022/12/09 08:45:29;;;;;;;;;;;;;;;2.96;100.00;98395.75;5012885;28;20280;-79
2022/12/09 08:47:54;;;;;;;;;;;;;;;2.81;100.00;98382.34;5014082;28;19914;-79
2022/12/09 08:50:19;;;;;;;;;;;;;;;2.98;100.00;98379.63;5012462;28;19950;-78
2022/12/09 08:52:44;;;;;;;;;;;;;;;3.17;100.00;98369.22;5011362;28;19917;-79
2022/12/09 08:55:10;;;;;;;;;;;;;;;3.19;100.00;98363.25;5014576;28;19924;-79
2022/12/09 08:57:35;;;;;;;;;;;;;;;3.33;100.00;98353.75;4998944;28;19929;-79
2022/12/09 09:00:01;;;;;;;;;;;;;;;3.60;100.00;98344.03;5015977;28;20051;-80
2022/12/09 09:02:26;;;;;;;;;;;;;;;3.60;100.00;98333.84;5018709;28;19913;-79
2022/12/09 09:04:51;;;;;;;;;;;;;;;3.61;100.00;98324.53;5020617;28;19914;-79
2022/12/09 09:07:16;;;;;;;;;;;;;;;3.31;100.00;98319.00;5022520;28;19955;-81
2022/12/09 09:09:41;;;;;;;;;;;;;;;3.30;100.00;98322.41;5019847;28;20276;-80
2022/12/09 09:12:07;;;;;;;;;;;;;;;3.68;100.00;98337.13;5012453;28;19914;-80
2022/12/09 09:14:32;;;;;;;;;;;;;;;3.58;100.00;98348.31;5020308;28;19941;-79
2022/12/09 09:16:57;;;;;;;;;;;;;;;3.98;100.00;98368.09;5020589;28;19917;-79
2022/12/09 09:19:24;;;;;;;;;;;;;;;3.88;100.00;98364.00;5005550;28;19913;-79
2022/12/09 09:21:49;;;;;;;;;;;;;;;3.76;100.00;98365.00;5021098;28;20000;-78
2022/12/09 09:24:16;;;;;;;;;;;;;;;3.70;100.00;98370.22;5020433;28;20458;-79
2022/12/09 09:26:42;;;;;;;;;;;;;;;4.05;100.00;98381.56;5018471;28;20375;-76
2022/12/09 09:29:08;;;;;;;;;;;;;;;4.18;100.00;98390.72;5011337;28;19980;-76
2022/12/09 09:31:33;;;;;;;;;;;;;;;4.14;100.00;98381.44;5010389;28;19918;-76
2022/12/09 09:33:58;;;;;;;;;;;;;;;4.06;100.00;98379.00;5011939;28;19917;-76
2022/12/09 09:36:23;;;;;;;;;;;;;;;4.17;100.00;98384.78;5010819;28;20443;-76
2022/12/09 09:38:49;;;;;;;;;;;;;;;4.27;100.00;98390.56;5009784;28;19920;-76
2022/12/09 09:41:33;;;;;;;;;;;;;;;3.59;100.00;98362.72;5008496;28;19922;-76
2022/12/09 09:43:59;;;;;;;;;;;;;;;4.15;100.00;98371.22;5009990;28;19925;-76
2022/12/09 09:46:33;;;;;;;;;;;;;;;4.43;100.00;98375.84;4998676;28;19944;-76
2022/12/09 09:48:58;;;;;;;;;;;;;;;4.50;100.00;98367.22;4998571;28;21026;-76
2022/12/09 09:51:23;;;;;;;;;;;;;;;4.59;100.00;98369.59;5008052;28;19971;-76
2022/12/09 09:53:49;;;;;;;;;;;;;;;4.73;100.00;98354.03;5009509;28;20294;-76
2022/12/09 09:56:23;;;;;;;;;;;;;;;4.43;100.00;98331.69;5008655;28;20510;-76
2022/12/09 09:58:57;;;;;;;;;;;;;;;4.59;100.00;98321.16;5007287;28;19921;-76
2022/12/09 10:01:24;;;;;;;;;;;;;;;4.64;100.00;98323.63;5007710;28;19936;-76
2022/12/09 10:04:00;;;;;;;;;;;;;;;4.81;100.00;98313.94;5006584;28;19920;-76
2022/12/09 10:06:31;;;;;;;;;;;;;;;4.91;100.00;98319.69;5006439;28;19924;-76
2022/12/09 10:08:59;;;;;;;;;;;;;;;4.17;100.00;98290.50;5005578;28;19929;-76
2022/12/09 10:11:44;;;;;;;;;;;;;;;4.43;100.00;98296.81;5006435;28;19914;-77
2022/12/09 10:14:13;;;;;;;;;;;;;;;4.60;100.00;98294.75;5005332;28;19928;-76
2022/12/09 10:16:53;;;;;;;;;;;;;;;5.01;100.00;98305.03;5007322;28;20030;-76
2022/12/09 10:19:20;;;;;;;;;;;;;;;5.31;100.00;98297.56;5005590;28;19932;-76
2022/12/09 10:21:46;;;;;;;;;;;;;;;5.29;100.00;98284.00;5006057;28;19917;-76
2022/12/09 10:24:16;;;;;;;;;;;;;;;5.62;100.00;98278.13;5005339;28;19929;-76
2022/12/09 10:26:41;;;;;;;;;;;;;;;5.61;100.00;98270.50;5004518;28;20044;-75
2022/12/09 10:29:14;;;;;;;;;;;;;;;5.72;100.00;98258.31;5005657;28;19933;-75
2022/12/09 10:31:40;;;;;;;;;;;;;;;5.30;100.00;98244.84;5004136;28;19913;-75
2022/12/09 10:34:05;;;;;;;;;;;;;;;5.14;100.00;98234.16;5003420;28;19963;-75
2022/12/09 10:36:30;;;;;;;;;;;;;;;4.72;100.00;98226.53;5005140;28;20040;-75
2022/12/09 10:38:55;;;;;;;;;;;;;;;4.36;100.00;98222.16;5003803;28;19964;-75
2022/12/09 10:44:40;;;;;;;;;;;;;;;4.54;100.00;98250.72;4982022;28;20583;-76
2022/12/09 10:47:06;;;;;;;;;;;;;;;4.63;100.00;98257.31;5001816;28;19925;-75
2022/12/09 10:49:32;;;;;;;;;;;;;;;4.65;100.00;98243.66;4988576;28;19917;-76
2022/12/09 10:51:57;;;;;;;;;;;;;;;4.76;100.00;98258.75;4989103;28;19920;-76
2022/12/09 10:54:30;;;;;;;;;;;;;;;3.94;100.00;98246.72;5006121;28;19929;-76
2022/12/09 10:57:11;;;;;;;;;;;;;;;4.02;100.00;98249.16;5006836;28;20008;-75
2022/12/09 10:59:36;;;;;;;;;;;;;;;4.31;100.00;98268.97;5005890;28;19914;-75
2022/12/09 11:02:04;;;;;;;;;;;;;;;4.48;100.00;98276.34;5004848;28;19932;-75
2022/12/09 11:04:40;;;;;;;;;;;;;;;4.59;100.00;98276.97;5006414;28;19963;-75
2022/12/09 11:07:11;;;;;;;;;;;;;;;4.53;100.00;98280.47;5005060;28;19913;-75
2022/12/09 11:09:45;;;;;;;;;;;;;;;4.73;100.00;98280.06;5006046;28;19917;-75
2022/12/09 11:12:25;;;;;;;;;;;;;;;4.60;100.00;98269.25;5006107;28;19949;-76
2022/12/09 11:14:54;;;;;;;;;;;;;;;4.76;100.00;98263.88;5006026;28;19936;-75
2022/12/09 11:17:19;;;;;;;;;;;;;;;4.43;100.00;98261.13;5004712;28;20032;-75
2022/12/09 11:19:46;;;;;;;;;;;;;;;4.23;100.00;98247.91;5005974;28;20012;-76
2022/12/09 11:22:32;;;;;;;;;;;;;;;4.15;100.00;98248.91;5004374;28;19917;-76
2022/12/09 11:25:09;;;;;;;;;;;;;;;4.38;100.00;98262.94;5004346;28;19913;-75
2022/12/09 11:27:35;;;;;;;;;;;;;;;4.75;100.00;98267.31;5004118;28;19920;-75
2022/12/09 11:30:20;;;;;;;;;;;;;;;5.07;100.00;98273.44;5004501;28;19913;-75
2022/12/09 11:32:55;;;;;;;;;;;;;;;4.70;100.00;98257.19;5004870;28;20018;-75
2022/12/09 11:35:26;;;;;;;;;;;;;;;4.16;100.00;98248.03;5005415;28;19928;-76
2022/12/09 11:37:51;;;;;;;;;;;;;;;4.39;100.00;98256.94;5004656;28;19917;-76
2022/12/09 11:40:17;;;;;;;;;;;;;;;4.92;100.00;98265.22;5004534;28;20284;-75
2022/12/09 11:42:42;;;;;;;;;;;;;;;5.10;100.00;98264.00;5006014;28;20297;-75
2022/12/09 11:45:26;;;;;;;;;;;;;;;5.10;100.00;98247.84;5006075;28;19986;-75
2022/12/09 11:47:55;;;;;;;;;;;;;;;5.12;100.00;98244.38;5005928;28;19994;-75
2022/12/09 11:50:22;;;;;;;;;;;;;;;4.92;100.00;98237.16;5004521;28;20387;-75
2022/12/09 11:53:08;;;;;;;;;;;;;;;4.38;100.00;98224.69;5004491;28;20272;-76
2022/12/09 11:55:33;;;;;;;;;;;;;;;4.65;100.00;98235.19;5001503;28;20432;-75
2022/12/09 11:58:00;;;;;;;;;;;;;;;4.34;100.00;98233.25;5003887;28;20000;-76
2022/12/09 12:00:26;;;;;;;;;;;;;;;4.60;100.00;98248.03;5004139;28;20975;-76
2022/12/09 12:03:03;;;;;;;;;;;;;;;4.30;100.00;98252.84;5004132;28;19917;-75
2022/12/09 12:05:35;;;;;;;;;;;;;;;4.12;100.00;98245.56;5005548;28;20086;-75
2022/12/09 12:08:19;;;;;;;;;;;;;;;4.29;100.00;98257.97;5003843;28;19928;-75
2022/12/09 12:10:58;;;;;;;;;;;;;;;4.00;100.00;98267.00;5005597;28;20481;-74
2022/12/09 12:13:28;;;;;;;;;;;;;;;4.43;100.00;98281.53;5005293;28;19914;-74
2022/12/09 12:15:56;;;;;;;;;;;;;;;4.01;100.00;98283.94;5005063;28;20368;-75
2022/12/09 12:18:21;;;;;;;;;;;;;;;3.70;100.00;98283.66;5005679;28;19917;-76
2022/12/09 12:21:10;;;;;;;;;;;;;;;3.64;100.00;98302.38;5003770;28;19967;-75
2022/12/09 12:23:38;;;;;;;;;;;;;;;4.12;100.00;98325.38;5003350;28;19920;-75
2022/12/09 12:26:05;;;;;;;;;;;;;;;3.61;100.00;98327.91;5005392;28;19919;-75
2022/12/09 12:28:35;;;;;;;;;;;;;;;3.88;100.00;98334.28;5003829;28;20347;-75
2022/12/09 12:31:22;;;;;;;;;;;;;;;3.88;100.00;98341.91;5003604;28;19936;-75
2022/12/09 12:33:50;;;;;;;;;;;;;;;2.96;100.00;98319.47;5004159;28;19924;-76
2022/12/09 12:36:19;;;;;;;;;;;;;;;2.64;100.00;98328.28;5002877;28;19926;-74
2022/12/09 12:39:03;;;;;;;;;;;;;;;2.54;100.00;98347.06;5002793;28;20411;-75
2022/12/09 12:41:35;;;;;;;;;;;;;;;2.80;100.00;98379.81;5004441;28;20059;-75
2022/12/09 12:46:51;;;;;;;;;;;;;;;3.21;100.00;98414.97;5003999;28;19925;-74
2022/12/09 12:49:23;;;;;;;;;;;;;;;2.79;100.00;98396.78;4997642;28;20105;-74
2022/12/09 12:52:17;;;;;;;;;;;;;;;2.77;100.00;98405.28;5002645;28;19925;-74
2022/12/09 12:54:55;;;;;;;;;;;;;;;3.06;100.00;98417.69;4981757;28;20413;-75